createdAt,value
2019-01-26T00:01:05.810Z,100643.95
2019-01-26T00:03:34.358Z,100631.73
2019-01-26T00:06:02.911Z,100622.94
2019-01-26T00:08:31.508Z,100610.70
2019-01-26T00:11:00.048Z,100604.45
2019-01-26T00:13:28.745Z,100607.47
2019-01-26T00:15:57.326Z,100602.89
2019-01-26T00:18:25.875Z,100608.45
2019-01-26T00:20:54.428Z,100592.33
2019-01-26T00:23:23.018Z,100591.53
2019-01-26T00:25:51.593Z,100579.22
2019-01-26T00:28:20.133Z,100583.54
2019-01-26T00:30:48.766Z,100573.16
2019-01-26T00:33:17.312Z,100565.23
2019-01-26T00:35:45.848Z,100566.98
2019-01-26T00:38:14.539Z,100567.48
2019-01-26T00:40:43.074Z,100559.45
2019-01-26T00:43:11.631Z,100561.31
2019-01-26T00:45:40.228Z,100557.49
2019-01-26T00:48:08.772Z,100554.66
2019-01-26T00:50:37.334Z,100544.19
2019-01-26T00:53:05.919Z,100540.85
2019-01-26T00:55:34.459Z,100540.16
2019-01-26T00:58:03.013Z,100529.11
2019-01-26T01:00:31.598Z,100528.02
2019-01-26T01:03:00.153Z,100519.13
2019-01-26T01:05:28.696Z,100508.55
2019-01-26T01:07:57.299Z,100503.39
2019-01-26T01:10:25.848Z,100494.39
2019-01-26T01:12:54.395Z,100495.19
2019-01-26T01:15:23.239Z,100490.70
2019-01-26T01:17:51.780Z,100486.60
2019-01-26T01:20:20.574Z,100480.47
2019-01-26T01:22:49.168Z,100475.28
2019-01-26T01:25:17.797Z,100473.44
2019-01-26T01:27:46.345Z,100469.34
2019-01-26T01:30:17.931Z,100466.33
2019-01-26T01:32:46.560Z,100473.08
2019-01-26T01:35:15.168Z,100464.08
2019-01-26T01:37:43.777Z,100448.66
2019-01-26T01:40:15.640Z,100441.03
2019-01-26T01:42:44.319Z,100440.92
2019-01-26T01:45:18.508Z,100438.89
2019-01-26T01:47:47.174Z,100439.26
2019-01-26T01:50:16.256Z,100433.30
2019-01-26T01:52:44.842Z,100437.52
2019-01-26T01:55:13.823Z,100426.95
2019-01-26T01:57:42.433Z,100420.89
2019-01-26T02:00:20.198Z,100415.23
2019-01-26T02:02:48.749Z,100402.92
2019-01-26T02:05:17.300Z,100394.50
2019-01-26T02:07:45.944Z,100376.71
2019-01-26T02:10:17.204Z,100374.57
2019-01-26T02:12:45.746Z,100377.98
2019-01-26T02:15:14.702Z,100382.20
2019-01-26T02:17:43.317Z,100375.38
2019-01-26T02:20:14.987Z,100363.53
2019-01-26T02:22:43.591Z,100360.02
2019-01-26T02:25:12.225Z,100347.31
2019-01-26T02:27:40.763Z,100335.48
2019-01-26T02:30:20.826Z,100332.77
2019-01-26T02:32:49.361Z,100321.33
2019-01-26T02:35:17.901Z,100312.38
2019-01-26T02:37:46.558Z,100311.57
2019-01-26T02:40:16.947Z,100302.58
2019-01-26T02:42:46.586Z,100302.20
2019-01-26T02:45:16.212Z,100295.45
2019-01-26T02:47:44.826Z,100306.09
2019-01-26T02:50:16.191Z,100297.70
2019-01-26T02:52:44.866Z,100294.75
2019-01-26T02:55:13.760Z,100293.09
2019-01-26T02:57:42.385Z,100290.95
2019-01-26T03:00:19.097Z,100286.73
2019-01-26T03:02:47.684Z,100288.10
2019-01-26T03:05:16.343Z,100281.34
2019-01-26T03:07:44.938Z,100277.14
2019-01-26T03:10:18.717Z,100283.66
2019-01-26T03:12:47.325Z,100277.70
2019-01-26T03:15:18.360Z,100276.91
2019-01-26T03:17:46.966Z,100272.73
2019-01-26T03:20:16.673Z,100278.58
2019-01-26T03:22:45.313Z,100276.03
2019-01-26T03:25:15.405Z,100273.09
2019-01-26T03:27:43.878Z,100277.51
2019-01-26T03:30:21.261Z,100281.78
2019-01-26T03:32:49.798Z,100279.81
2019-01-26T03:35:18.405Z,100274.43
2019-01-26T03:37:47.072Z,100278.01
2019-01-26T03:40:18.168Z,100271.75
2019-01-26T03:42:46.785Z,100277.30
2019-01-26T03:45:16.810Z,100262.16
2019-01-26T03:47:45.504Z,100264.30
2019-01-26T03:50:15.801Z,100266.44
2019-01-26T03:52:44.464Z,100266.03
2019-01-26T03:55:15.639Z,100260.95
2019-01-26T03:57:44.112Z,100253.82
2019-01-26T04:00:21.471Z,100253.82
2019-01-26T04:02:50.027Z,100257.23
2019-01-26T04:05:18.646Z,100238.07
2019-01-26T04:07:47.400Z,100235.53
2019-01-26T04:10:16.329Z,100228.70
2019-01-26T04:12:45.015Z,100233.89
2019-01-26T04:15:16.330Z,100232.68
2019-01-26T04:17:45.228Z,100228.41
2019-01-26T04:20:16.674Z,100227.91
2019-01-26T04:22:45.251Z,100230.94
2019-01-26T04:25:13.944Z,100235.06
2019-01-26T04:27:42.500Z,100229.01
2019-01-26T04:30:13.933Z,100233.69
2019-01-26T04:32:42.479Z,100237.60
2019-01-26T04:35:11.577Z,100232.62
2019-01-26T04:37:40.156Z,100218.63
2019-01-26T04:40:11.343Z,100213.92
2019-01-26T04:42:39.902Z,100216.96
2019-01-26T04:45:20.063Z,100214.48
2019-01-26T04:47:49.911Z,100211.23
2019-01-26T04:50:20.035Z,100205.44
2019-01-26T04:52:48.631Z,100209.45
2019-01-26T04:55:19.326Z,100204.53
2019-01-26T04:57:47.957Z,100201.38
2019-01-26T05:00:24.566Z,100200.42
2019-01-26T05:02:53.186Z,100189.23
2019-01-26T05:05:21.871Z,100187.72
2019-01-26T05:07:50.449Z,100175.96
2019-01-26T05:10:20.635Z,100167.16
2019-01-26T05:12:49.943Z,100166.84
2019-01-26T05:15:19.441Z,100166.34
2019-01-26T05:17:48.090Z,100169.76
2019-01-26T05:20:19.373Z,100165.23
2019-01-26T05:22:48.034Z,100161.42
2019-01-26T05:25:16.496Z,100157.94
2019-01-26T05:27:45.052Z,100159.98
2019-01-26T05:30:22.181Z,100164.20
2019-01-26T05:32:50.732Z,100162.13
2019-01-26T05:35:19.466Z,100160.64
2019-01-26T05:37:48.132Z,100163.66
2019-01-26T05:40:17.930Z,100161.11
2019-01-26T05:42:46.472Z,100165.23
2019-01-26T05:45:20.302Z,100162.31
2019-01-26T05:47:49.711Z,100166.91
2019-01-26T05:50:20.903Z,100173.77
2019-01-26T05:52:49.515Z,100173.42
2019-01-26T05:55:18.195Z,100160.33
2019-01-26T05:57:46.749Z,100160.80
2019-01-26T06:00:22.494Z,100145.63
2019-01-26T06:02:51.057Z,100152.91
2019-01-26T06:05:19.612Z,100153.97
2019-01-26T06:07:50.024Z,100146.90
2019-01-26T06:10:18.705Z,100149.91
2019-01-26T06:12:47.261Z,100145.69
2019-01-26T06:15:15.850Z,100150.46
2019-01-26T06:17:44.442Z,100147.20
2019-01-26T06:20:16.775Z,100146.48
2019-01-26T06:22:45.451Z,100143.57
2019-01-26T06:25:17.226Z,100143.62
2019-01-26T06:27:45.776Z,100147.45
2019-01-26T06:30:43.558Z,100145.05
2019-01-26T06:33:12.118Z,100141.73
2019-01-26T06:35:40.670Z,100147.84
2019-01-26T06:38:09.239Z,100137.66
2019-01-26T06:40:37.791Z,100142.44
2019-01-26T06:43:06.341Z,100150.88
2019-01-26T06:45:34.925Z,100154.76
2019-01-26T06:48:03.477Z,100147.98
2019-01-26T06:50:32.029Z,100143.86
2019-01-26T06:53:00.780Z,100140.14
2019-01-26T06:55:29.335Z,100145.69
2019-01-26T06:57:58.137Z,100144.91
2019-01-26T07:00:29.586Z,100147.92
2019-01-26T07:02:58.104Z,100138.53
2019-01-26T07:05:28.446Z,100136.13
2019-01-26T07:07:57.043Z,100134.69
2019-01-26T07:10:25.595Z,100137.64
2019-01-26T07:12:54.064Z,100135.19
2019-01-26T07:15:22.568Z,100130.56
2019-01-26T07:17:51.120Z,100127.14
2019-01-26T07:20:19.664Z,100137.88
2019-01-26T07:22:48.328Z,100133.75
2019-01-26T07:25:16.862Z,100138.58
2019-01-26T07:27:45.433Z,100127.21
2019-01-26T07:30:22.007Z,100122.67
2019-01-26T07:32:50.458Z,100115.98
2019-01-26T07:35:18.920Z,100116.04
2019-01-26T07:37:47.416Z,100113.50
2019-01-26T07:40:18.619Z,100105.63
2019-01-26T07:42:47.174Z,100107.04
2019-01-26T07:45:15.930Z,100108.92
2019-01-26T07:47:44.382Z,100116.79
2019-01-26T07:50:16.102Z,100120.75
2019-01-26T07:52:44.594Z,100119.34
2019-01-26T07:55:13.521Z,100117.25
2019-01-26T07:57:42.055Z,100108.47
2019-01-26T08:00:22.122Z,100107.83
2019-01-26T08:02:50.598Z,100109.11
2019-01-26T08:05:19.212Z,100110.38
2019-01-26T08:07:47.714Z,100104.80
2019-01-26T08:10:21.374Z,100110.38
2019-01-26T08:12:50.079Z,100112.61
2019-01-26T08:15:27.322Z,100114.02
2019-01-26T08:17:55.795Z,100128.31
2019-01-26T08:20:24.389Z,100131.59
2019-01-26T08:22:53.061Z,100127.72
2019-01-26T08:25:21.612Z,100127.72
2019-01-26T08:27:50.230Z,100129.22
2019-01-26T08:30:23.177Z,100121.66
2019-01-26T08:32:51.876Z,100124.55
2019-01-26T08:35:20.542Z,100127.97
2019-01-26T08:37:49.698Z,100132.75
2019-01-26T08:40:20.558Z,100139.67
2019-01-26T08:42:50.632Z,100137.25
2019-01-26T08:45:19.193Z,100135.73
2019-01-26T08:47:47.858Z,100139.64
2019-01-26T08:50:18.752Z,100134.19
2019-01-26T08:52:47.289Z,100135.67
2019-01-26T08:55:18.367Z,100132.80
2019-01-26T08:57:46.324Z,100133.67
2019-01-26T09:00:18.712Z,100126.83
2019-01-26T09:02:55.519Z,100130.25
2019-01-26T09:05:34.815Z,100131.61
2019-01-26T09:08:03.297Z,100127.30
2019-01-26T09:10:31.756Z,100126.97
2019-01-26T09:13:00.246Z,100135.16
2019-01-26T09:15:28.724Z,100125.04
2019-01-26T09:17:57.401Z,100131.14
2019-01-26T09:20:25.881Z,100125.43
2019-01-26T09:22:54.377Z,100126.92
2019-01-26T09:25:22.837Z,100120.75
2019-01-26T09:27:51.425Z,100122.28
2019-01-26T09:30:21.919Z,100117.47
2019-01-26T09:32:50.549Z,100121.17
2019-01-26T09:35:19.584Z,100116.32
2019-01-26T09:37:48.114Z,100110.67
2019-01-26T09:40:20.380Z,100108.04
2019-01-26T09:42:48.847Z,100099.91
2019-01-26T09:45:18.721Z,100101.89
2019-01-26T09:47:47.857Z,100095.70
2019-01-26T09:50:16.955Z,100108.22
2019-01-26T09:52:45.484Z,100108.79
2019-01-26T09:55:18.052Z,100105.98
2019-01-26T09:57:46.523Z,100107.71
2019-01-26T10:00:18.940Z,100111.63
2019-01-26T10:02:47.453Z,100103.12
2019-01-26T10:05:16.690Z,100104.15
2019-01-26T10:07:45.148Z,100104.38
2019-01-26T10:10:18.456Z,100108.00
2019-01-26T10:12:46.922Z,100111.28
2019-01-26T10:15:18.131Z,100106.77
2019-01-26T10:17:46.734Z,100102.22
2019-01-26T10:20:21.271Z,100098.51
2019-01-26T10:22:49.735Z,100097.41
2019-01-26T10:25:18.702Z,100095.45
2019-01-26T10:27:47.225Z,100096.44
2019-01-26T10:30:22.756Z,100092.22
2019-01-26T10:32:51.223Z,100095.30
2019-01-26T10:35:19.682Z,100095.08
2019-01-26T10:37:48.257Z,100087.11
2019-01-26T10:40:35.073Z,100089.36
2019-01-26T10:43:05.021Z,100073.91
2019-01-26T10:45:33.471Z,100089.31
2019-01-26T10:48:01.934Z,100091.64
2019-01-26T10:50:30.437Z,100087.64
2019-01-26T10:52:58.894Z,100086.98
2019-01-26T10:55:27.363Z,100080.35
2019-01-26T10:57:55.917Z,100080.49
2019-01-26T11:00:24.451Z,100081.98
2019-01-26T11:02:52.911Z,100084.30
2019-01-26T11:05:21.474Z,100086.20
2019-01-26T11:07:49.937Z,100083.82
2019-01-26T11:10:18.475Z,100078.05
2019-01-26T11:12:46.979Z,100078.21
2019-01-26T11:15:15.425Z,100075.41
2019-01-26T11:17:43.894Z,100077.72
2019-01-26T11:20:14.633Z,100081.73
2019-01-26T11:22:43.480Z,100074.63
2019-01-26T11:25:13.184Z,100071.75
2019-01-26T11:27:41.966Z,100070.56
2019-01-26T11:30:15.890Z,100072.02
2019-01-26T11:32:44.512Z,100069.55
2019-01-26T11:35:15.424Z,100070.61
2019-01-26T11:37:43.893Z,100061.77
2019-01-26T11:40:14.858Z,100057.22
2019-01-26T11:42:43.349Z,100060.30
2019-01-26T11:45:15.591Z,100056.52
2019-01-26T11:47:44.061Z,100051.42
2019-01-26T11:50:14.072Z,100044.41
2019-01-26T11:52:42.532Z,100044.41
2019-01-26T11:55:12.772Z,100035.08
2019-01-26T11:57:41.278Z,100030.62
2019-01-26T12:00:33.159Z,100035.99
2019-01-26T12:03:03.612Z,100025.26
2019-01-26T12:05:34.278Z,100034.14
2019-01-26T12:08:02.755Z,100034.14
2019-01-26T12:10:31.248Z,100022.09
2019-01-26T12:12:59.702Z,100021.38
2019-01-26T12:15:28.182Z,100021.38
2019-01-26T12:17:56.720Z,100013.19
2019-01-26T12:20:25.185Z,100018.82
2019-01-26T12:22:53.651Z,100020.37
2019-01-26T12:25:22.158Z,100020.37
2019-01-26T12:27:50.759Z,100009.97
2019-01-26T12:30:19.218Z,100004.72
2019-01-26T12:32:47.824Z,100007.03
2019-01-26T12:35:16.289Z,99994.45
2019-01-26T12:37:44.757Z,100006.08
2019-01-26T12:40:14.781Z,100001.64
2019-01-26T12:42:43.266Z,100001.64
2019-01-26T12:45:14.864Z,100007.44
2019-01-26T12:47:43.454Z,100007.44
2019-01-26T12:50:12.851Z,100010.77
2019-01-26T12:52:42.216Z,100011.52
2019-01-26T12:55:13.965Z,100002.40
2019-01-26T12:57:42.542Z,100007.61
2019-01-26T13:00:14.202Z,100007.61
2019-01-26T13:02:42.786Z,100006.75
2019-01-26T13:05:11.329Z,100006.75
2019-01-26T13:07:40.833Z,99995.00
2019-01-26T13:10:12.533Z,100007.17
2019-01-26T13:12:40.986Z,99998.05
2019-01-26T13:15:15.176Z,99992.14
2019-01-26T13:17:39.737Z,99999.00
2019-01-26T13:20:16.280Z,99997.21
2019-01-26T13:22:44.795Z,99999.63
2019-01-26T13:25:16.192Z,100001.80
2019-01-26T13:27:44.657Z,100002.60
2019-01-26T13:30:20.812Z,100000.45
2019-01-26T13:32:49.281Z,100000.45
2019-01-26T13:35:17.821Z,100000.10
2019-01-26T13:37:46.425Z,100006.16
2019-01-26T13:40:26.149Z,100007.02
2019-01-26T13:42:54.660Z,100007.02
2019-01-26T13:45:23.119Z,100020.70
2019-01-26T13:47:51.582Z,100015.98
2019-01-26T13:50:20.179Z,100015.98
2019-01-26T13:52:48.638Z,100003.59
2019-01-26T13:55:19.897Z,99998.34
2019-01-26T13:57:48.471Z,99988.77
2019-01-26T14:00:22.884Z,99988.77
2019-01-26T14:02:51.430Z,99983.62
2019-01-26T14:05:19.995Z,99987.48
2019-01-26T14:07:48.463Z,99994.73
2019-01-26T14:10:24.892Z,99992.97
2019-01-26T14:12:53.740Z,99994.25
2019-01-26T14:15:25.562Z,99981.86
2019-01-26T14:17:54.137Z,99980.16
2019-01-26T14:20:29.570Z,99980.16
2019-01-26T14:22:58.152Z,99984.00
2019-01-26T14:25:27.294Z,99979.71
2019-01-26T14:27:55.832Z,99979.71
2019-01-26T14:30:30.037Z,99985.34
2019-01-26T14:32:58.529Z,99975.03
2019-01-26T14:35:27.004Z,99979.71
2019-01-26T14:37:55.524Z,99979.80
2019-01-26T14:40:24.089Z,99974.23
2019-01-26T14:42:54.386Z,99980.66
2019-01-26T14:45:22.737Z,99980.22
2019-01-26T14:47:51.243Z,99977.30
2019-01-26T14:50:20.168Z,99981.14
2019-01-26T14:52:48.645Z,99972.11
2019-01-26T14:55:22.755Z,99972.53
2019-01-26T14:57:51.274Z,99967.23
2019-01-26T15:00:31.634Z,99967.23
2019-01-26T15:03:00.089Z,99962.98
2019-01-26T15:05:28.733Z,99968.69
2019-01-26T15:07:57.620Z,99968.23
2019-01-26T15:10:26.640Z,99965.26
2019-01-26T15:12:55.334Z,99969.13
2019-01-26T15:15:23.873Z,99965.28
2019-01-26T15:17:52.356Z,99970.83
2019-01-26T15:20:26.818Z,99970.83
2019-01-26T15:22:55.321Z,99962.70
2019-01-26T15:25:23.775Z,99961.83
2019-01-26T15:27:52.238Z,99960.13
2019-01-26T15:30:26.926Z,99960.13
2019-01-26T15:32:55.384Z,99960.48
2019-01-26T15:35:23.832Z,99959.66
2019-01-26T15:37:52.388Z,99965.77
2019-01-26T15:40:20.929Z,99956.28
2019-01-26T15:42:49.471Z,99955.95
2019-01-26T15:45:23.287Z,99955.59
2019-01-26T15:47:51.811Z,99955.59
2019-01-26T15:50:20.265Z,99959.86
2019-01-26T15:52:48.790Z,99952.47
2019-01-26T15:55:20.439Z,99952.47
2019-01-26T15:57:48.970Z,99955.95
2019-01-26T16:00:20.007Z,99949.97
2019-01-26T16:02:48.473Z,99949.97
2019-01-26T16:05:17.005Z,99950.38
2019-01-26T16:07:45.484Z,99945.62
2019-01-26T16:10:17.281Z,99945.62
2019-01-26T16:12:45.738Z,99947.67
2019-01-26T16:15:20.811Z,99947.67
2019-01-26T16:17:49.437Z,99943.89
2019-01-26T16:20:20.420Z,99945.20
2019-01-26T16:22:49.149Z,99943.89
2019-01-26T16:25:17.749Z,99943.89
2019-01-26T16:27:46.274Z,99948.95
2019-01-26T16:30:20.981Z,99946.81
2019-01-26T16:32:49.443Z,99946.30
2019-01-26T16:35:18.844Z,99944.66
2019-01-26T16:37:47.695Z,99947.95
2019-01-26T16:40:27.800Z,99954.70
2019-01-26T16:42:56.358Z,99954.70
2019-01-26T16:45:30.403Z,99962.84
2019-01-26T16:47:58.865Z,99963.61
2019-01-26T16:50:29.299Z,99963.61
2019-01-26T16:52:57.832Z,99961.05
2019-01-26T16:55:26.434Z,99964.36
2019-01-26T16:57:54.918Z,99961.80
2019-01-26T17:00:35.150Z,99956.20
2019-01-26T17:03:03.723Z,99956.20
2019-01-26T17:05:32.180Z,99955.42
2019-01-26T17:08:00.720Z,99955.90
2019-01-26T17:10:34.094Z,99946.52
2019-01-26T17:12:59.480Z,99946.52
2019-01-26T17:15:28.016Z,99950.30
2019-01-26T17:17:57.621Z,99944.81
2019-01-26T17:20:34.613Z,99946.52
2019-01-26T17:22:58.418Z,99946.52
2019-01-26T17:25:26.908Z,99944.37
2019-01-26T17:27:55.436Z,99930.63
2019-01-26T17:30:26.715Z,99930.63
2019-01-26T17:32:55.195Z,99932.00
2019-01-26T17:35:23.658Z,99936.27
2019-01-26T17:37:52.123Z,99936.27
2019-01-26T17:40:22.688Z,99934.56
2019-01-26T17:42:51.138Z,99926.37
2019-01-26T17:45:20.238Z,99926.37
2019-01-26T17:47:49.154Z,99929.86
2019-01-26T17:50:22.667Z,99929.08
2019-01-26T17:52:51.199Z,99919.66
2019-01-26T17:55:19.785Z,99919.66
2019-01-26T17:57:48.313Z,99911.50
2019-01-26T18:00:27.081Z,99905.51
2019-01-26T18:02:55.717Z,99905.56
2019-01-26T18:05:24.252Z,99905.56
2019-01-26T18:07:52.762Z,99909.00
2019-01-26T18:10:23.932Z,99909.92
2019-01-26T18:12:52.462Z,99909.92
2019-01-26T18:15:20.961Z,99902.67
2019-01-26T18:17:49.435Z,99896.69
2019-01-26T18:20:25.085Z,99896.69
2019-01-26T18:22:53.621Z,99884.23
2019-01-26T18:25:23.727Z,99884.23
2019-01-26T18:27:52.309Z,99876.88
2019-01-26T18:30:29.457Z,99883.01
2019-01-26T18:32:57.956Z,99883.09
2019-01-26T18:35:26.425Z,99869.86
2019-01-26T18:37:54.975Z,99873.01
2019-01-26T18:40:26.268Z,99875.58
2019-01-26T18:42:55.036Z,99874.30
2019-01-26T18:45:25.639Z,99863.16
2019-01-26T18:47:54.285Z,99865.57
2019-01-26T18:50:31.973Z,99865.57
2019-01-26T18:53:00.631Z,99869.50
2019-01-26T18:55:29.094Z,99861.37
2019-01-26T18:57:57.564Z,99861.37
2019-01-26T19:00:29.240Z,99853.26
2019-01-26T19:03:09.868Z,99857.11
2019-01-26T19:05:39.612Z,99863.01
2019-01-26T19:08:08.624Z,99863.01
2019-01-26T19:10:37.175Z,99850.47
2019-01-26T19:13:05.755Z,99866.73
2019-01-26T19:15:34.284Z,99856.87
2019-01-26T19:18:02.740Z,99855.98
2019-01-26T19:20:31.253Z,99858.55
2019-01-26T19:23:00.089Z,99841.78
2019-01-26T19:25:28.549Z,99839.24
2019-01-26T19:27:57.026Z,99822.86
2019-01-26T19:30:25.574Z,99827.13
2019-01-26T19:32:54.421Z,99829.69
2019-01-26T19:35:23.553Z,99828.34
2019-01-26T19:37:52.010Z,99826.20
2019-01-26T19:40:24.444Z,99815.81
2019-01-26T19:42:53.013Z,99816.80
2019-01-26T19:45:22.727Z,99815.52
2019-01-26T19:47:51.200Z,99811.67
2019-01-26T19:50:25.494Z,99807.41
2019-01-26T19:52:54.017Z,99799.72
2019-01-26T19:55:24.016Z,99800.58
2019-01-26T19:57:52.530Z,99793.26
2019-01-26T20:00:21.001Z,99795.94
2019-01-26T20:02:49.521Z,99789.53
2019-01-26T20:05:22.871Z,99784.84
2019-01-26T20:07:51.334Z,99774.04
2019-01-26T20:10:20.426Z,99782.70
2019-01-26T20:12:48.929Z,99777.52
2019-01-26T20:15:22.817Z,99777.52
2019-01-26T20:17:51.370Z,99780.17
2019-01-26T20:20:39.236Z,99781.92
2019-01-26T20:23:07.943Z,99773.68
2019-01-26T20:25:37.429Z,99773.68
2019-01-26T20:28:06.163Z,99772.45
2019-01-26T20:30:35.376Z,99764.35
2019-01-26T20:33:03.978Z,99766.49
2019-01-26T20:35:32.477Z,99766.49
2019-01-26T20:38:00.927Z,99769.05
2019-01-26T20:40:29.391Z,99768.64
2019-01-26T20:42:57.893Z,99772.48
2019-01-26T20:45:28.580Z,99763.13
2019-01-26T20:47:57.035Z,99749.84
2019-01-26T20:50:25.625Z,99747.36
2019-01-26T20:52:54.089Z,99741.37
2019-01-26T20:55:22.556Z,99734.10
2019-01-26T20:57:52.012Z,99727.20
2019-01-26T21:00:28.838Z,99720.23
2019-01-26T21:02:57.511Z,99715.51
2019-01-26T21:05:26.057Z,99715.51
2019-01-26T21:07:54.585Z,99717.58
2019-01-26T21:10:28.064Z,99713.17
2019-01-26T21:12:58.102Z,99712.39
2019-01-26T21:15:27.000Z,99705.55
2019-01-26T21:17:55.661Z,99705.94
2019-01-26T21:20:25.955Z,99703.73
2019-01-26T21:22:54.456Z,99698.09
2019-01-26T21:25:23.019Z,99692.89
2019-01-26T21:27:52.592Z,99692.89
2019-01-26T21:30:23.567Z,99685.93
2019-01-26T21:32:52.075Z,99684.70
2019-01-26T21:35:20.594Z,99686.43
2019-01-26T21:37:49.193Z,99686.38
2019-01-26T21:40:29.107Z,99690.69
2019-01-26T21:42:58.240Z,99672.20
2019-01-26T21:45:26.701Z,99672.20
2019-01-26T21:47:55.264Z,99671.90
2019-01-26T21:50:27.333Z,99670.14
2019-01-26T21:52:56.220Z,99669.28
2019-01-26T21:55:24.787Z,99657.20
2019-01-26T21:57:53.249Z,99657.63
2019-01-26T22:00:29.920Z,99659.88
2019-01-26T22:02:58.381Z,99658.17
2019-01-26T22:05:26.907Z,99648.79
2019-01-26T22:07:55.402Z,99641.05
2019-01-26T22:10:27.038Z,99641.05
2019-01-26T22:12:55.574Z,99630.78
2019-01-26T22:15:24.908Z,99630.78
2019-01-26T22:17:53.537Z,99622.63
2019-01-26T22:20:28.840Z,99622.63
2019-01-26T22:22:58.133Z,99614.58
2019-01-26T22:25:26.605Z,99615.92
2019-01-26T22:27:55.726Z,99609.45
2019-01-26T22:30:30.149Z,99610.87
2019-01-26T22:32:58.733Z,99610.87
2019-01-26T22:35:27.184Z,99607.47
2019-01-26T22:37:55.873Z,99609.25
2019-01-26T22:40:29.760Z,99605.88
2019-01-26T22:42:58.291Z,99596.08
2019-01-26T22:45:27.095Z,99596.08
2019-01-26T22:47:55.703Z,99596.08
2019-01-26T22:50:29.407Z,99593.52
2019-01-26T22:52:57.968Z,99593.52
2019-01-26T22:55:27.024Z,99581.00
2019-01-26T22:57:55.920Z,99581.07
2019-01-26T23:00:55.195Z,99579.41
2019-01-26T23:03:35.585Z,99579.84
2019-01-26T23:06:15.971Z,99572.58
2019-01-26T23:08:46.245Z,99559.00
2019-01-26T23:11:29.233Z,99559.00
2019-01-26T23:14:00.864Z,99554.84
2019-01-26T23:16:41.380Z,99554.84
2019-01-26T23:19:25.012Z,99550.22
2019-01-26T23:22:21.071Z,99550.28
2019-01-26T23:25:01.403Z,99552.42
2019-01-26T23:27:52.471Z,99547.80
2019-01-26T23:30:40.562Z,99545.70
2019-01-26T23:33:10.054Z,99545.70
2019-01-26T23:35:38.502Z,99545.77
2019-01-26T23:38:06.953Z,99540.23
2019-01-26T23:40:35.423Z,99542.86
2019-01-26T23:43:04.249Z,99542.86
2019-01-26T23:45:32.703Z,99535.59
2019-01-26T23:48:01.207Z,99535.59
2019-01-26T23:50:29.654Z,99531.88
2019-01-26T23:52:58.117Z,99528.45
2019-01-26T23:55:26.594Z,99523.34
2019-01-26T23:57:55.054Z,99511.91
